Fort Yukon, AK

5:34 PM AKDT on October 20, 2014 (GMT -0800)
Fort Yukon | Change Station
CLOSE
Current Station
Airport
Location: Fort Yukon,
Elevation: 430 ft
Nearby Weather Stations
Active Advisory: Winter Weather Advisory

Elev 430 ft 66.57 °N, 145.27 °W | Updated 18 minutes ago

Scattered Clouds
Scattered Clouds
28 °F
Feels Like 18 °F
N
14
Wind Variable Wind from ENE
Gusts 21 mph

Today
High -- | Low -- °F
--% Chance of Precip.
Yesterday
High -- | Low -- °F
Precip. -- in
8:59 AM 5:55 PM
Waning Crescent, 8% visible
Pressure 29.38 in
Visibility 10.0 miles
Clouds Few 2300 ft
Scattered Clouds 7000 ft
Windchill 18 °F
Dew Point 18 °F
Humidity 64%
Rainfall 0.00 in
Snow Depth 3 in
UV 0 out of 12
Pollen Not available.
Air Quality Not available.
Flu Activity Sporadic
METAR PFYU 210116Z 06012G18KT 10SM FEW023 SCT070 M02/M08 A2938 RMK AO1

More Conditions Fewer Conditions

Pressure 29.38 in
Visibility 10.0 miles
Clouds Few 2300 ft
Scattered Clouds 7000 ft
Windchill 18 °F
Dew Point 18 °F
Humidity 64%
Rainfall 0.00 in
Snow Depth 3 in
UV 0 out of 12
Pollen Not available.
Air Quality Not available.
Flu Activity Sporadic
METAR PFYU 210116Z 06012G18KT 10SM FEW023 SCT070 M02/M08 A2938 RMK AO1

More Conditions Fewer Conditions

10-Day Weather Forecast

Almanac

Astronomy

Oct. 20, 2014 Rise Set
Actual Time 8:59 AM AKDT 5:55 PM AKDT
Civil Twilight 8:04 AM AKDT 6:50 PM AKDT
Nautical Twilight 7:03 AM AKDT 7:50 PM AKDT
Astronomical Twilight 6:02 AM AKDT 8:51 PM AKDT
Moon 4:44 AM AKDT (10/20) 5:23 PM AKDT (10/20)
Length of Visible Light 10h 45m
Length of Day
8h 56m
Tomorrow will be 7m 20s shorter.
Waning Crescent, 8% of the Moon is Illuminated
Today
Waning Crescent
Oct 23
New
Oct 30
First Quarter
Nov 6
Full
Nov 14
Last Quarter

Today's Extremes

State Highs State Lows

Community

WunderPhotos

Upload Photos

1,763,579 photos uploaded!

Nearby

Snow Depth

Station Depth Elevation
Fort Yukon 3 in 430 ft
Eagle Summit 14 in 3650 ft
Mt. Ryan 7 in 2800 ft
Monument Creek 5 in 1850 ft
Little Chena Ridge 4 in 2000 ft

Earthquake Activity

City Distance Mag. Time & Date
No recent earthquake activity has been reported nearby.
Minimum magnitude displayed is 2.5.

Coastal Water Temperatures

Place Temperature
No Stations Reporting

Nearby Weather Stations